createdAt,value
2024-01-20T00:01:36.122Z,55.11
2024-01-20T00:04:02.954Z,54.78
2024-01-20T00:06:29.908Z,55.17
2024-01-20T00:08:56.657Z,55.16
2024-01-20T00:11:23.261Z,54.83
2024-01-20T00:13:49.739Z,54.78
2024-01-20T00:16:16.272Z,54.98
2024-01-20T00:18:52.072Z,54.26
2024-01-20T00:21:20.357Z,54.14
2024-01-20T00:23:46.950Z,54.16
2024-01-20T00:26:14.247Z,54.77
2024-01-20T00:31:21.257Z,53.63
2024-01-20T00:33:47.874Z,54.28
2024-01-20T00:36:15.668Z,54.38
2024-01-20T00:38:42.148Z,54.34
2024-01-20T00:41:08.835Z,54.65
2024-01-20T00:43:35.334Z,54.98
2024-01-20T00:46:02.359Z,54.53
2024-01-20T00:48:28.851Z,54.07
2024-01-20T00:50:55.358Z,53.91
2024-01-20T00:53:21.903Z,54.67
2024-01-20T00:55:48.413Z,54.08
2024-01-20T00:58:14.863Z,53.13
2024-01-20T01:00:41.379Z,52.78
2024-01-20T01:03:08.547Z,53.05
2024-01-20T01:05:35.065Z,52.58
2024-01-20T01:08:01.497Z,53.27
2024-01-20T01:10:27.920Z,53.25
2024-01-20T01:12:54.397Z,53.44
2024-01-20T01:15:20.846Z,51.74
2024-01-20T01:17:47.309Z,52.77
2024-01-20T01:20:13.894Z,53.58
2024-01-20T01:28:11.677Z,54.66
2024-01-20T01:30:38.168Z,54.44
2024-01-20T01:33:04.728Z,54.54
2024-01-20T01:35:31.291Z,54.71
2024-01-20T01:37:57.854Z,54.58
2024-01-20T01:40:24.789Z,54.19
2024-01-20T01:42:51.245Z,53.61
2024-01-20T01:45:17.685Z,53.45
2024-01-20T01:47:44.168Z,53.97
2024-01-20T01:50:10.984Z,54.00
2024-01-20T01:52:37.421Z,54.78
2024-01-20T01:55:03.827Z,53.30
2024-01-20T02:00:23.971Z,53.84
2024-01-20T02:03:00.455Z,54.53
2024-01-20T02:05:26.934Z,53.71
2024-01-20T02:07:53.426Z,53.72
2024-01-20T02:10:19.871Z,55.11
2024-01-20T02:12:46.345Z,55.23
2024-01-20T02:15:14.993Z,55.13
2024-01-20T02:17:42.323Z,54.93
2024-01-20T02:20:08.722Z,54.74
2024-01-20T02:22:35.120Z,54.91
2024-01-20T02:25:01.506Z,54.46
2024-01-20T02:30:08.414Z,55.12
2024-01-20T02:32:34.860Z,54.27
2024-01-20T02:35:01.297Z,54.46
2024-01-20T02:37:29.368Z,54.68
2024-01-20T02:40:14.321Z,55.29
2024-01-20T02:45:24.200Z,55.15
2024-01-20T02:47:50.865Z,55.97
2024-01-20T02:50:17.501Z,55.87
2024-01-20T02:52:43.968Z,56.35
2024-01-20T02:55:10.488Z,55.93
2024-01-20T02:57:36.955Z,55.47
2024-01-20T03:00:03.533Z,56.10
2024-01-20T03:02:29.999Z,55.71
2024-01-20T03:04:56.586Z,55.32
2024-01-20T03:07:23.131Z,54.97
2024-01-20T03:09:49.548Z,55.27
2024-01-20T03:15:06.118Z,55.69
2024-01-20T03:17:32.614Z,56.04
2024-01-20T03:19:59.129Z,55.97
2024-01-20T03:22:25.697Z,56.17
2024-01-20T03:24:52.124Z,56.43
2024-01-20T03:27:18.673Z,56.38
2024-01-20T03:29:45.208Z,55.72
2024-01-20T03:32:11.668Z,56.50
2024-01-20T03:34:38.152Z,56.00
2024-01-20T03:37:12.088Z,56.50
2024-01-20T03:39:38.588Z,55.88
2024-01-20T03:42:05.105Z,55.96
2024-01-20T03:44:31.626Z,56.28
2024-01-20T03:46:58.053Z,56.43
2024-01-20T03:49:24.652Z,56.16
2024-01-20T03:51:51.223Z,56.34
2024-01-20T03:54:17.745Z,56.20
2024-01-20T03:56:44.234Z,55.98
2024-01-20T03:59:10.757Z,55.29
2024-01-20T04:01:37.257Z,55.44
2024-01-20T04:04:03.821Z,56.12
2024-01-20T04:06:30.283Z,55.96
2024-01-20T04:08:56.713Z,56.43
2024-01-20T04:11:34.358Z,56.17
2024-01-20T04:14:00.863Z,55.95
2024-01-20T04:16:27.331Z,56.03
2024-01-20T04:18:53.923Z,56.04
2024-01-20T04:21:20.566Z,55.99
2024-01-20T04:23:47.007Z,56.32
2024-01-20T04:26:13.447Z,56.63
2024-01-20T04:28:39.842Z,56.95
2024-01-20T04:31:06.323Z,56.31
2024-01-20T04:33:35.118Z,56.84
2024-01-20T04:36:05.446Z,56.12
2024-01-20T04:38:42.539Z,55.50
2024-01-20T04:41:08.947Z,56.30
2024-01-20T04:43:35.383Z,56.29
2024-01-20T04:46:01.785Z,56.11
2024-01-20T04:48:28.530Z,55.88
2024-01-20T04:50:55.132Z,55.93
2024-01-20T04:53:21.554Z,55.83
2024-01-20T04:58:28.251Z,55.96
2024-01-20T05:00:54.754Z,56.30
2024-01-20T05:03:21.436Z,56.20
2024-01-20T05:08:28.479Z,56.55
2024-01-20T05:10:55.795Z,56.56
2024-01-20T05:13:22.263Z,56.00
2024-01-20T05:15:50.738Z,56.46
2024-01-20T05:18:17.381Z,56.32
2024-01-20T05:20:43.901Z,56.66
2024-01-20T05:23:10.310Z,55.90
2024-01-20T05:25:36.821Z,56.03
2024-01-20T05:28:03.338Z,55.78
2024-01-20T05:30:29.845Z,56.13
2024-01-20T05:32:56.394Z,56.09
2024-01-20T05:35:23.009Z,55.72
2024-01-20T05:37:49.413Z,56.10
2024-01-20T05:40:15.945Z,56.30
2024-01-20T05:42:42.383Z,56.10
2024-01-20T05:45:08.862Z,56.29
2024-01-20T05:47:35.275Z,56.95
2024-01-20T05:50:01.909Z,56.68
2024-01-20T05:52:28.362Z,56.08
2024-01-20T05:54:54.811Z,56.13
2024-01-20T05:57:21.303Z,55.57
2024-01-20T05:59:47.732Z,55.28
2024-01-20T06:02:14.128Z,55.45
2024-01-20T06:04:40.960Z,56.07
2024-01-20T06:09:52.148Z,56.32
2024-01-20T06:12:20.710Z,56.22
2024-01-20T06:17:37.945Z,56.09
2024-01-20T06:20:04.408Z,56.20
2024-01-20T06:22:30.919Z,56.73
2024-01-20T06:24:57.330Z,56.43
2024-01-20T06:27:23.809Z,56.58
2024-01-20T06:29:50.276Z,56.77
2024-01-20T06:32:16.784Z,57.11
2024-01-20T06:34:43.332Z,57.21
2024-01-20T06:37:10.000Z,57.58
2024-01-20T06:39:36.550Z,57.10
2024-01-20T06:42:03.061Z,56.86
2024-01-20T06:44:29.592Z,57.30
2024-01-20T06:46:56.137Z,57.83
2024-01-20T06:49:22.723Z,57.09
2024-01-20T06:51:49.320Z,56.89
2024-01-20T06:54:15.847Z,56.97
2024-01-20T06:56:42.343Z,57.09
2024-01-20T06:59:08.801Z,57.16
2024-01-20T07:01:35.446Z,57.55
2024-01-20T07:04:02.043Z,56.93
2024-01-20T07:06:28.560Z,56.44
2024-01-20T07:08:54.967Z,56.75
2024-01-20T07:11:21.480Z,56.50
2024-01-20T07:13:48.013Z,56.67
2024-01-20T07:16:14.496Z,57.58
2024-01-20T07:18:40.960Z,57.06
2024-01-20T07:21:07.447Z,57.19
2024-01-20T07:23:33.871Z,57.24
2024-01-20T07:26:00.458Z,57.09
2024-01-20T07:28:26.871Z,57.29
2024-01-20T07:30:53.345Z,56.85
2024-01-20T07:33:19.827Z,57.30
2024-01-20T07:35:46.232Z,57.18
2024-01-20T07:38:12.662Z,57.62
2024-01-20T07:40:39.086Z,57.03
2024-01-20T07:43:05.719Z,56.66
2024-01-20T07:45:32.299Z,56.46
2024-01-20T07:50:42.918Z,55.70
2024-01-20T07:53:09.447Z,56.25
2024-01-20T07:55:35.934Z,56.20
2024-01-20T07:58:02.929Z,56.10
2024-01-20T08:00:38.114Z,55.94
2024-01-20T08:03:04.763Z,56.50
2024-01-20T08:05:31.974Z,57.58
2024-01-20T08:07:58.491Z,57.71
2024-01-20T08:10:24.914Z,57.73
2024-01-20T08:12:51.414Z,57.21
2024-01-20T08:15:17.941Z,57.36
2024-01-20T08:17:44.571Z,57.44
2024-01-20T08:20:11.007Z,57.35
2024-01-20T08:22:37.394Z,56.48
2024-01-20T08:25:03.824Z,56.01
2024-01-20T08:27:30.391Z,56.90
2024-01-20T08:29:57.095Z,56.67
2024-01-20T08:32:23.752Z,56.63
2024-01-20T08:34:50.213Z,56.97
2024-01-20T08:37:16.618Z,57.52
2024-01-20T08:39:43.047Z,56.87
2024-01-20T08:42:09.475Z,57.37
2024-01-20T08:44:35.972Z,57.40
2024-01-20T08:47:02.370Z,57.29
2024-01-20T08:49:28.869Z,57.31
2024-01-20T08:51:55.382Z,57.53
2024-01-20T08:59:45.329Z,56.78
2024-01-20T09:02:11.740Z,56.88
2024-01-20T09:04:38.488Z,57.12
2024-01-20T09:07:05.103Z,57.20
2024-01-20T09:09:31.720Z,57.24
2024-01-20T09:11:58.206Z,56.93
2024-01-20T09:14:24.933Z,57.43
2024-01-20T09:16:51.374Z,57.63
2024-01-20T09:19:18.086Z,57.61
2024-01-20T09:21:44.695Z,56.97
2024-01-20T09:24:11.231Z,57.24
2024-01-20T09:26:37.712Z,56.99
2024-01-20T09:29:04.240Z,56.73
2024-01-20T09:31:30.747Z,56.49
2024-01-20T09:33:57.336Z,56.10
2024-01-20T09:36:24.779Z,56.52
2024-01-20T09:38:51.309Z,56.81
2024-01-20T09:41:17.718Z,56.12
2024-01-20T09:43:44.156Z,56.69
2024-01-20T09:46:10.592Z,56.81
2024-01-20T09:48:42.645Z,57.35
2024-01-20T09:53:49.541Z,58.03
2024-01-20T09:56:16.072Z,57.30
2024-01-20T09:58:42.538Z,56.62
2024-01-20T10:01:09.124Z,56.92
2024-01-20T10:03:36.016Z,56.39
2024-01-20T10:08:42.907Z,56.54
2024-01-20T10:11:09.310Z,56.89
2024-01-20T10:13:35.698Z,56.27
2024-01-20T10:16:03.123Z,55.94
2024-01-20T10:18:36.602Z,55.85
2024-01-20T10:21:03.408Z,55.52
2024-01-20T10:23:32.286Z,53.96
2024-01-20T10:25:58.768Z,53.78
2024-01-20T10:28:25.305Z,54.37
2024-01-20T10:30:56.565Z,55.00
2024-01-20T10:33:23.187Z,55.57
2024-01-20T10:35:49.675Z,55.32
2024-01-20T10:38:17.754Z,55.75
2024-01-20T10:40:44.475Z,54.68
2024-01-20T10:46:05.651Z,54.78
2024-01-20T10:48:32.209Z,54.75
2024-01-20T10:50:58.789Z,54.68
2024-01-20T10:53:25.348Z,53.80
2024-01-20T10:55:51.946Z,53.29
2024-01-20T10:58:18.410Z,52.31
2024-01-20T11:00:45.046Z,52.18
2024-01-20T11:03:11.688Z,50.94
2024-01-20T11:05:38.299Z,50.55
2024-01-20T11:08:04.831Z,50.47
2024-01-20T11:10:34.747Z,51.17
2024-01-20T11:13:01.198Z,52.53
2024-01-20T11:15:27.678Z,50.99
2024-01-20T11:17:54.248Z,50.87
2024-01-20T11:20:20.825Z,51.53
2024-01-20T11:22:47.367Z,52.28
2024-01-20T11:25:13.845Z,51.90
2024-01-20T11:27:40.337Z,51.54
2024-01-20T11:30:06.932Z,53.46
2024-01-20T11:32:33.423Z,52.55
2024-01-20T11:34:59.927Z,52.86
2024-01-20T11:37:26.357Z,52.72
2024-01-20T11:39:52.805Z,53.90
2024-01-20T11:42:19.234Z,52.80
2024-01-20T11:44:45.649Z,51.68
2024-01-20T11:47:12.131Z,51.26
2024-01-20T11:49:38.847Z,51.41
2024-01-20T11:52:05.399Z,52.39
2024-01-20T11:54:31.920Z,51.54
2024-01-20T11:56:58.465Z,52.47
2024-01-20T11:59:25.052Z,52.35
2024-01-20T12:01:51.548Z,52.55
2024-01-20T12:04:18.163Z,52.18
2024-01-20T12:06:44.728Z,51.98
2024-01-20T12:09:11.184Z,52.16
2024-01-20T12:11:37.716Z,52.48
2024-01-20T12:14:04.209Z,52.94
2024-01-20T12:16:30.662Z,52.95
2024-01-20T12:18:57.195Z,53.23
2024-01-20T12:21:23.803Z,52.99
2024-01-20T12:23:50.304Z,54.58
2024-01-20T12:26:16.779Z,54.68
2024-01-20T12:28:43.263Z,53.94
2024-01-20T12:31:11.284Z,53.31
2024-01-20T12:33:38.477Z,54.11
2024-01-20T12:36:05.123Z,54.13
2024-01-20T12:38:31.647Z,54.92
2024-01-20T12:40:58.164Z,54.71
2024-01-20T12:43:24.645Z,53.57
2024-01-20T12:45:51.271Z,54.42
2024-01-20T12:48:17.947Z,54.69
2024-01-20T12:50:44.518Z,54.29
2024-01-20T12:53:11.155Z,54.11
2024-01-20T12:55:37.681Z,54.04
2024-01-20T12:58:04.179Z,54.46
2024-01-20T13:00:30.658Z,54.81
2024-01-20T13:02:57.166Z,53.41
2024-01-20T13:05:23.714Z,53.58
2024-01-20T13:07:50.288Z,53.84
2024-01-20T13:10:16.766Z,53.83
2024-01-20T13:12:43.355Z,53.31
2024-01-20T13:15:18.372Z,54.16
2024-01-20T13:17:44.953Z,53.81
2024-01-20T13:20:11.686Z,54.27
2024-01-20T13:22:38.255Z,54.37
2024-01-20T13:25:07.682Z,53.99
2024-01-20T13:27:34.197Z,53.89
2024-01-20T13:30:00.721Z,54.33
2024-01-20T13:32:35.015Z,54.71
2024-01-20T13:35:01.583Z,53.81
2024-01-20T13:37:28.312Z,53.62
2024-01-20T13:42:35.137Z,55.12
2024-01-20T13:45:01.721Z,55.01
2024-01-20T13:47:30.078Z,54.79
2024-01-20T13:50:06.327Z,54.57
2024-01-20T13:52:32.851Z,54.75
2024-01-20T13:55:00.266Z,54.40
2024-01-20T13:57:26.811Z,53.80
2024-01-20T13:59:53.276Z,53.91
2024-01-20T14:02:19.749Z,53.57
2024-01-20T14:04:46.238Z,54.75
2024-01-20T14:07:12.812Z,54.52
2024-01-20T14:09:39.435Z,55.35
2024-01-20T14:12:09.560Z,54.70
2024-01-20T14:14:37.257Z,54.46
2024-01-20T14:17:03.782Z,54.87
2024-01-20T14:19:30.491Z,55.92
2024-01-20T14:21:57.055Z,55.02
2024-01-20T14:24:23.601Z,55.12
2024-01-20T14:26:50.548Z,55.78
2024-01-20T14:29:17.054Z,54.69
2024-01-20T14:31:43.679Z,55.02
2024-01-20T14:34:10.442Z,54.92
2024-01-20T14:36:37.128Z,54.15
2024-01-20T14:39:04.059Z,55.04
2024-01-20T14:41:30.507Z,54.63
2024-01-20T14:43:57.103Z,54.90
2024-01-20T14:46:23.485Z,55.20
2024-01-20T14:48:49.976Z,54.56
2024-01-20T14:51:16.492Z,54.81
2024-01-20T14:53:42.900Z,54.54
2024-01-20T14:56:09.758Z,55.13
2024-01-20T15:01:16.482Z,55.64
2024-01-20T15:03:43.008Z,55.94
2024-01-20T15:06:09.572Z,55.10
2024-01-20T15:08:36.049Z,54.88
2024-01-20T15:11:02.458Z,55.24
2024-01-20T15:13:28.860Z,55.07
2024-01-20T15:15:55.280Z,55.22
2024-01-20T15:18:21.900Z,54.84
2024-01-20T15:20:48.371Z,55.22
2024-01-20T15:23:14.834Z,54.80
2024-01-20T15:25:41.281Z,55.00
2024-01-20T15:28:07.719Z,54.55
2024-01-20T15:30:34.230Z,54.20
2024-01-20T15:33:00.804Z,54.33
2024-01-20T15:35:27.281Z,54.44
2024-01-20T15:37:53.681Z,54.52
2024-01-20T15:40:20.140Z,54.86
2024-01-20T15:42:46.633Z,54.62
2024-01-20T15:45:13.093Z,54.87
2024-01-20T15:47:39.628Z,55.52
2024-01-20T15:50:06.136Z,55.68
2024-01-20T15:52:32.643Z,55.58
2024-01-20T15:55:14.079Z,55.52
2024-01-20T15:57:40.536Z,55.80
2024-01-20T16:00:07.034Z,56.58
2024-01-20T16:05:22.984Z,55.83
2024-01-20T16:07:49.470Z,55.71
2024-01-20T16:10:15.891Z,56.54
2024-01-20T16:15:24.095Z,57.49
2024-01-20T16:17:50.667Z,57.83
2024-01-20T16:20:17.143Z,57.92
2024-01-20T16:22:43.702Z,58.45
2024-01-20T16:25:10.259Z,58.40
2024-01-20T16:27:39.046Z,58.59
2024-01-20T16:32:56.154Z,59.43
2024-01-20T16:35:22.752Z,59.19
2024-01-20T16:37:49.239Z,59.44
2024-01-20T16:40:15.684Z,59.14
2024-01-20T16:42:42.323Z,59.17
2024-01-20T16:45:08.870Z,58.63
2024-01-20T16:47:35.553Z,58.75
2024-01-20T16:50:02.427Z,58.85
2024-01-20T16:52:29.071Z,59.28
2024-01-20T16:54:55.552Z,59.92
2024-01-20T16:57:21.991Z,59.80
2024-01-20T16:59:48.503Z,59.39
2024-01-20T17:02:14.963Z,59.62
2024-01-20T17:04:41.620Z,59.50
2024-01-20T17:07:08.226Z,59.95
2024-01-20T17:09:34.727Z,59.47
2024-01-20T17:12:01.327Z,59.72
2024-01-20T17:14:27.880Z,60.14
2024-01-20T17:16:54.402Z,60.12
2024-01-20T17:19:20.978Z,60.16
2024-01-20T17:21:47.598Z,60.06
2024-01-20T17:24:14.103Z,59.88
2024-01-20T17:26:40.543Z,60.04
2024-01-20T17:29:06.968Z,59.67
2024-01-20T17:31:33.392Z,59.62
2024-01-20T17:33:59.858Z,59.67
2024-01-20T17:36:26.416Z,59.72
2024-01-20T17:38:52.923Z,60.09
2024-01-20T17:41:19.370Z,60.30
2024-01-20T17:43:45.811Z,60.43
2024-01-20T17:46:12.213Z,60.39
2024-01-20T17:51:19.069Z,60.59
2024-01-20T17:53:45.869Z,61.00
2024-01-20T17:56:12.817Z,61.25
2024-01-20T17:58:39.259Z,60.94
2024-01-20T18:01:06.849Z,61.17
2024-01-20T18:03:33.529Z,61.08
2024-01-20T18:06:00.292Z,61.19
2024-01-20T18:08:26.918Z,61.12
2024-01-20T18:10:53.430Z,61.83
2024-01-20T18:13:20.285Z,61.58
2024-01-20T18:15:47.060Z,61.49
2024-01-20T18:18:14.799Z,61.56
2024-01-20T18:20:42.156Z,61.56
2024-01-20T18:23:12.430Z,61.40
2024-01-20T18:25:39.046Z,61.33
2024-01-20T18:28:05.515Z,61.10
2024-01-20T18:30:32.144Z,61.13
2024-01-20T18:32:58.833Z,61.65
2024-01-20T18:35:25.458Z,61.57
2024-01-20T18:37:51.925Z,61.51
2024-01-20T18:40:18.382Z,61.70
2024-01-20T18:42:45.017Z,61.91
2024-01-20T18:45:11.777Z,61.38
2024-01-20T18:47:38.326Z,61.18
2024-01-20T18:50:04.839Z,61.34
2024-01-20T18:52:31.260Z,61.12
2024-01-20T18:54:57.765Z,61.40
2024-01-20T18:57:24.317Z,61.73
2024-01-20T18:59:50.834Z,61.34
2024-01-20T19:02:17.220Z,61.49
2024-01-20T19:04:43.920Z,61.87
2024-01-20T19:09:52.074Z,61.96
2024-01-20T19:12:18.587Z,61.85
2024-01-20T19:14:45.122Z,61.31
2024-01-20T19:17:11.621Z,62.01
2024-01-20T19:19:38.270Z,61.48
2024-01-20T19:22:04.990Z,61.54
2024-01-20T19:24:31.458Z,61.90
2024-01-20T19:26:58.006Z,62.02
2024-01-20T19:29:24.552Z,62.10
2024-01-20T19:31:50.999Z,62.29
2024-01-20T19:34:17.534Z,61.54
2024-01-20T19:36:45.084Z,61.93
2024-01-20T19:39:11.589Z,62.17
2024-01-20T19:41:40.388Z,61.94
2024-01-20T19:44:06.856Z,61.57
2024-01-20T19:46:33.394Z,62.38
2024-01-20T19:49:00.273Z,62.05
2024-01-20T19:51:26.932Z,62.27
2024-01-20T19:53:55.582Z,62.26
2024-01-20T19:56:29.891Z,62.27
2024-01-20T19:58:56.416Z,62.24
2024-01-20T20:01:23.014Z,62.25
2024-01-20T20:03:49.469Z,62.24
2024-01-20T20:06:16.221Z,62.38
2024-01-20T20:08:42.758Z,62.53
2024-01-20T20:11:09.234Z,62.57
2024-01-20T20:13:35.789Z,62.45
2024-01-20T20:16:02.301Z,62.46
2024-01-20T20:18:28.909Z,62.72
2024-01-20T20:20:55.499Z,62.95
2024-01-20T20:23:22.184Z,62.65
2024-01-20T20:25:48.626Z,63.05
2024-01-20T20:28:15.170Z,62.84
2024-01-20T20:30:48.465Z,63.45
2024-01-20T20:33:19.187Z,63.26
2024-01-20T20:35:48.418Z,63.02
2024-01-20T20:38:15.349Z,63.43
2024-01-20T20:40:41.835Z,63.06
2024-01-20T20:43:08.352Z,63.12
2024-01-20T20:45:34.856Z,63.37
2024-01-20T20:48:01.376Z,63.36
2024-01-20T20:50:27.856Z,63.16
2024-01-20T20:52:54.378Z,63.02
2024-01-20T20:55:20.880Z,63.15
2024-01-20T20:57:47.403Z,63.18
2024-01-20T21:00:14.019Z,62.84
2024-01-20T21:02:40.564Z,63.03
2024-01-20T21:05:07.075Z,63.29
2024-01-20T21:07:33.544Z,63.33
2024-01-20T21:09:59.986Z,63.24
2024-01-20T21:12:26.466Z,63.49
2024-01-20T21:14:52.991Z,63.22
2024-01-20T21:17:19.516Z,62.98
2024-01-20T21:19:46.221Z,63.41
2024-01-20T21:22:12.751Z,63.10
2024-01-20T21:24:39.360Z,63.28
2024-01-20T21:27:06.002Z,63.57
2024-01-20T21:29:32.599Z,63.53
2024-01-20T21:31:59.099Z,63.33
2024-01-20T21:34:25.649Z,63.93
2024-01-20T21:36:52.282Z,63.50
2024-01-20T21:39:18.909Z,63.34
2024-01-20T21:41:45.452Z,63.80
2024-01-20T21:44:11.944Z,63.80
2024-01-20T21:46:38.426Z,63.87
2024-01-20T21:49:05.179Z,63.83
2024-01-20T21:51:31.960Z,63.64
2024-01-20T21:53:58.625Z,64.04
2024-01-20T21:56:25.112Z,64.30
2024-01-20T21:58:51.516Z,63.87
2024-01-20T22:01:18.058Z,63.96
2024-01-20T22:03:44.802Z,63.68
2024-01-20T22:06:11.627Z,63.70
2024-01-20T22:08:38.215Z,64.05
2024-01-20T22:11:07.536Z,63.94
2024-01-20T22:13:34.015Z,63.18
2024-01-20T22:16:00.474Z,63.85
2024-01-20T22:18:27.078Z,64.04
2024-01-20T22:20:53.618Z,63.87
2024-01-20T22:23:20.052Z,63.59
2024-01-20T22:25:46.439Z,63.62
2024-01-20T22:28:12.954Z,63.42
2024-01-20T22:30:39.438Z,63.92
2024-01-20T22:33:05.987Z,63.53
2024-01-20T22:35:32.590Z,63.54
2024-01-20T22:38:01.772Z,63.87
2024-01-20T22:40:28.273Z,63.78
2024-01-20T22:42:54.820Z,63.82
2024-01-20T22:45:21.275Z,63.91
2024-01-20T22:47:47.863Z,63.92
2024-01-20T22:50:14.456Z,63.83
2024-01-20T22:52:40.956Z,63.88
2024-01-20T22:55:07.543Z,63.98
2024-01-20T22:57:34.152Z,63.96
2024-01-20T23:00:00.659Z,64.05
2024-01-20T23:02:27.132Z,64.00
2024-01-20T23:04:55.396Z,64.24
2024-01-20T23:10:18.150Z,64.00
2024-01-20T23:12:45.169Z,64.19
2024-01-20T23:15:12.324Z,64.14
2024-01-20T23:17:38.778Z,64.11
2024-01-20T23:20:05.234Z,64.58
2024-01-20T23:22:31.716Z,64.31
2024-01-20T23:24:58.136Z,64.15
2024-01-20T23:27:24.577Z,64.19
2024-01-20T23:29:51.190Z,64.41
2024-01-20T23:32:19.641Z,64.24
2024-01-20T23:34:46.165Z,64.24
2024-01-20T23:37:12.682Z,63.84
2024-01-20T23:39:51.627Z,64.34
2024-01-20T23:42:18.121Z,63.68
2024-01-20T23:44:44.629Z,64.19
2024-01-20T23:47:11.101Z,64.06
2024-01-20T23:49:37.819Z,63.92
2024-01-20T23:52:04.337Z,64.00
2024-01-20T23:54:30.809Z,64.08
2024-01-20T23:56:57.332Z,64.15
2024-01-20T23:59:23.713Z,64.28
